MAS2542 WMKK-WBGG
Flight info
| Callsign | MAS2542 |
|---|---|
| Flight time | 1h 29m |
| Altitude | 37000 |
| Route | KIMAT1D KIMAT Y344 VPK M761 ESBAL ESBAL1G |
| Aircraft | B738/M-SDE2E3FGHIRWXY/LB1 |
Departure
| Time | 2026-05-07 20:36 |
|---|---|
| Airport | Kuala Lumpur International Airport (WMKK) |
Arrival
| Time | 2026-05-07 22:05 |
|---|---|
| Airport | Kuching International Airport (WBGG) |
| Time | Latitude | Longitude | Altitude | Speed | Heading |
|---|---|---|---|---|---|
| 2026-05-07 20:04 | 2.75168 | 101.70285 | 62 ft | 0 kts | 146° |
| 2026-05-07 20:24 | 2.75172 | 101.70283 | 62 ft | 2 kts | 147° |
| 2026-05-07 20:24 | 2.75193 | 101.70273 | 69 ft | 4 kts | 188° |
| 2026-05-07 20:24 | 2.75213 | 101.70285 | 72 ft | 4 kts | 235° |
| 2026-05-07 20:25 | 2.75219 | 101.70295 | 62 ft | 1 kts | 236° |
| 2026-05-07 20:25 | 2.75220 | 101.70295 | 66 ft | 0 kts | 236° |
| 2026-05-07 20:27 | 2.75219 | 101.70294 | 68 ft | 1 kts | 236° |
| 2026-05-07 20:27 | 2.75197 | 101.70261 | 69 ft | 11 kts | 236° |
| 2026-05-07 20:28 | 2.75146 | 101.70186 | 69 ft | 14 kts | 236° |
| 2026-05-07 20:28 | 2.75095 | 101.70109 | 65 ft | 13 kts | 237° |
| 2026-05-07 20:28 | 2.75046 | 101.70034 | 63 ft | 13 kts | 236° |
| 2026-05-07 20:28 | 2.74994 | 101.69978 | 66 ft | 10 kts | 197° |
| 2026-05-07 20:29 | 2.74932 | 101.70004 | 72 ft | 10 kts | 146° |
| 2026-05-07 20:29 | 2.74864 | 101.70049 | 68 ft | 13 kts | 146° |
| 2026-05-07 20:29 | 2.74782 | 101.70103 | 67 ft | 15 kts | 146° |
| 2026-05-07 20:29 | 2.74703 | 101.70156 | 69 ft | 9 kts | 146° |
| 2026-05-07 20:30 | 2.74667 | 101.70200 | 58 ft | 10 kts | 104° |
| 2026-05-07 20:30 | 2.74690 | 101.70265 | 59 ft | 10 kts | 56° |
| 2026-05-07 20:30 | 2.74741 | 101.70339 | 57 ft | 17 kts | 56° |
| 2026-05-07 20:30 | 2.74818 | 101.70451 | 63 ft | 22 kts | 56° |
| 2026-05-07 20:31 | 2.74906 | 101.70580 | 71 ft | 22 kts | 56° |
| 2026-05-07 20:31 | 2.74990 | 101.70706 | 67 ft | 22 kts | 56° |
| 2026-05-07 20:31 | 2.75073 | 101.70828 | 67 ft | 21 kts | 56° |
| 2026-05-07 20:31 | 2.75153 | 101.70945 | 69 ft | 20 kts | 56° |
| 2026-05-07 20:32 | 2.75232 | 101.71062 | 72 ft | 20 kts | 56° |
| 2026-05-07 20:32 | 2.75307 | 101.71172 | 69 ft | 19 kts | 56° |
| 2026-05-07 20:32 | 2.75384 | 101.71283 | 70 ft | 21 kts | 56° |
| 2026-05-07 20:32 | 2.75467 | 101.71407 | 71 ft | 22 kts | 54° |
| 2026-05-07 20:33 | 2.75521 | 101.71506 | 66 ft | 12 kts | 100° |
| 2026-05-07 20:33 | 2.75459 | 101.71560 | 63 ft | 13 kts | 144° |
| 2026-05-07 20:33 | 2.75404 | 101.71598 | 67 ft | 16 kts | 147° |
| 2026-05-07 20:33 | 2.75259 | 101.71694 | 64 ft | 21 kts | 146° |
| 2026-05-07 20:34 | 2.75176 | 101.71749 | 69 ft | 23 kts | 146° |
| 2026-05-07 20:34 | 2.75043 | 101.71840 | 72 ft | 23 kts | 146° |
| 2026-05-07 20:34 | 2.74912 | 101.71925 | 72 ft | 22 kts | 147° |
| 2026-05-07 20:34 | 2.74795 | 101.72004 | 73 ft | 10 kts | 145° |
| 2026-05-07 20:35 | 2.74761 | 101.72061 | 75 ft | 10 kts | 86° |
| 2026-05-07 20:35 | 2.74790 | 101.72122 | 75 ft | 10 kts | 57° |
| 2026-05-07 20:35 | 2.74829 | 101.72177 | 72 ft | 10 kts | 47° |
| 2026-05-07 20:35 | 2.74891 | 101.72170 | 77 ft | 11 kts | 329° |
| 2026-05-07 20:36 | 2.75016 | 101.72086 | 72 ft | 48 kts | 326° |
| 2026-05-07 20:36 | 2.75497 | 101.71764 | 73 ft | 117 kts | 326° |
| 2026-05-07 20:36 | 2.76337 | 101.71201 | 104 ft | 169 kts | 326° |
| 2026-05-07 20:36 | 2.77322 | 101.70530 | 797 ft | 169 kts | 326° |
| 2026-05-07 20:37 | 2.78322 | 101.69855 | 1470 ft | 181 kts | 326° |
| 2026-05-07 20:37 | 2.79457 | 101.69100 | 1769 ft | 211 kts | 329° |
| 2026-05-07 20:37 | 2.80881 | 101.68503 | 1971 ft | 234 kts | 342° |
| 2026-05-07 20:37 | 2.82515 | 101.67965 | 2210 ft | 258 kts | 341° |
| 2026-05-07 20:38 | 2.84242 | 101.67368 | 2870 ft | 266 kts | 341° |
| 2026-05-07 20:38 | 2.85985 | 101.66750 | 3613 ft | 272 kts | 341° |
| 2026-05-07 20:38 | 2.87775 | 101.66108 | 4385 ft | 274 kts | 341° |
| 2026-05-07 20:38 | 2.89583 | 101.65457 | 5179 ft | 277 kts | 341° |
| 2026-05-07 20:39 | 2.91484 | 101.65182 | 5904 ft | 280 kts | 8° |
| 2026-05-07 20:39 | 2.93319 | 101.65831 | 6654 ft | 281 kts | 28° |
| 2026-05-07 20:39 | 2.95032 | 101.66806 | 7359 ft | 286 kts | 31° |
| 2026-05-07 20:39 | 2.96753 | 101.67827 | 8042 ft | 289 kts | 31° |
| 2026-05-07 20:40 | 2.98491 | 101.68863 | 8737 ft | 292 kts | 31° |
| 2026-05-07 20:40 | 3.00251 | 101.69904 | 9389 ft | 296 kts | 30° |
| 2026-05-07 20:40 | 3.02042 | 101.70957 | 10063 ft | 299 kts | 31° |
| 2026-05-07 20:40 | 3.03890 | 101.72038 | 10298 ft | 318 kts | 31° |
| 2026-05-07 20:41 | 3.05859 | 101.73187 | 10482 ft | 337 kts | 31° |
| 2026-05-07 20:41 | 3.07922 | 101.74388 | 10876 ft | 347 kts | 31° |
| 2026-05-07 20:41 | 3.10022 | 101.75608 | 11499 ft | 350 kts | 31° |
| 2026-05-07 20:41 | 3.12132 | 101.76834 | 12182 ft | 351 kts | 31° |
| 2026-05-07 20:42 | 3.14217 | 101.78046 | 12831 ft | 353 kts | 31° |
| 2026-05-07 20:42 | 3.16359 | 101.79338 | 13460 ft | 356 kts | 37° |
| 2026-05-07 20:42 | 3.18045 | 101.81096 | 14097 ft | 355 kts | 56° |
| 2026-05-07 20:42 | 3.19419 | 101.83157 | 14771 ft | 357 kts | 57° |
| 2026-05-07 20:43 | 3.20790 | 101.85245 | 15418 ft | 360 kts | 57° |
| 2026-05-07 20:43 | 3.22181 | 101.87338 | 16048 ft | 363 kts | 57° |
| 2026-05-07 20:43 | 3.23596 | 101.89441 | 16666 ft | 365 kts | 57° |
| 2026-05-07 20:43 | 3.25020 | 101.91561 | 17280 ft | 367 kts | 59° |
| 2026-05-07 20:44 | 3.25972 | 101.93925 | 17812 ft | 370 kts | 79° |
| 2026-05-07 20:44 | 3.26100 | 101.96489 | 18428 ft | 371 kts | 96° |
| 2026-05-07 20:44 | 3.25574 | 101.99019 | 18997 ft | 373 kts | 103° |
| 2026-05-07 20:44 | 3.24912 | 102.01548 | 19470 ft | 378 kts | 104° |
| 2026-05-07 20:45 | 3.24230 | 102.04070 | 19912 ft | 383 kts | 104° |
| 2026-05-07 20:45 | 3.23535 | 102.06649 | 20415 ft | 385 kts | 104° |
| 2026-05-07 20:45 | 3.22847 | 102.09247 | 20907 ft | 387 kts | 104° |
| 2026-05-07 20:45 | 3.22163 | 102.11865 | 21350 ft | 390 kts | 103° |
| 2026-05-07 20:46 | 3.21482 | 102.14503 | 21783 ft | 393 kts | 103° |
| 2026-05-07 20:46 | 3.20798 | 102.17163 | 22209 ft | 396 kts | 103° |
| 2026-05-07 20:46 | 3.20110 | 102.19840 | 22636 ft | 398 kts | 103° |
| 2026-05-07 20:46 | 3.19421 | 102.22533 | 23059 ft | 400 kts | 103° |
| 2026-05-07 20:47 | 3.18728 | 102.25240 | 23453 ft | 403 kts | 103° |
| 2026-05-07 20:47 | 3.18030 | 102.27964 | 23824 ft | 405 kts | 103° |
| 2026-05-07 20:47 | 3.17329 | 102.30698 | 24179 ft | 408 kts | 103° |
| 2026-05-07 20:47 | 3.16631 | 102.33461 | 24527 ft | 410 kts | 101° |
| 2026-05-07 20:48 | 3.16424 | 102.36298 | 24824 ft | 412 kts | 84° |
| 2026-05-07 20:48 | 3.16920 | 102.39130 | 25155 ft | 414 kts | 78° |
| 2026-05-07 20:48 | 3.17527 | 102.41918 | 25471 ft | 417 kts | 78° |
| 2026-05-07 20:48 | 3.18164 | 102.44755 | 25791 ft | 419 kts | 77° |
| 2026-05-07 20:49 | 3.18802 | 102.47609 | 26107 ft | 421 kts | 78° |
| 2026-05-07 20:49 | 3.19433 | 102.50477 | 26430 ft | 423 kts | 78° |
| 2026-05-07 20:49 | 3.20058 | 102.53361 | 26722 ft | 425 kts | 78° |
| 2026-05-07 20:49 | 3.20681 | 102.56264 | 27004 ft | 428 kts | 78° |
| 2026-05-07 20:50 | 3.21302 | 102.59185 | 27286 ft | 430 kts | 78° |
| 2026-05-07 20:50 | 3.21923 | 102.62119 | 27566 ft | 432 kts | 78° |
| 2026-05-07 20:50 | 3.22547 | 102.65066 | 27847 ft | 434 kts | 78° |
| 2026-05-07 20:50 | 3.23172 | 102.68026 | 28101 ft | 436 kts | 78° |
| 2026-05-07 20:51 | 3.23800 | 102.71002 | 28352 ft | 438 kts | 78° |
| 2026-05-07 20:51 | 3.24431 | 102.73989 | 28609 ft | 440 kts | 78° |
| 2026-05-07 20:51 | 3.25065 | 102.76995 | 28866 ft | 441 kts | 78° |
| 2026-05-07 20:51 | 3.25702 | 102.80004 | 29114 ft | 443 kts | 78° |
| 2026-05-07 20:52 | 3.26340 | 102.83024 | 29344 ft | 445 kts | 78° |
| 2026-05-07 20:52 | 3.26981 | 102.86058 | 29546 ft | 447 kts | 78° |
| 2026-05-07 20:52 | 3.27626 | 102.89114 | 29758 ft | 449 kts | 78° |
| 2026-05-07 20:52 | 3.28271 | 102.92169 | 29983 ft | 450 kts | 78° |
| 2026-05-07 20:53 | 3.28920 | 102.95240 | 30218 ft | 451 kts | 78° |
| 2026-05-07 20:53 | 3.29560 | 102.98275 | 30462 ft | 452 kts | 78° |
| 2026-05-07 20:53 | 3.30211 | 103.01356 | 30665 ft | 453 kts | 78° |
| 2026-05-07 20:53 | 3.30864 | 103.04450 | 30847 ft | 455 kts | 78° |
| 2026-05-07 20:54 | 3.31517 | 103.07545 | 31098 ft | 455 kts | 78° |
| 2026-05-07 20:54 | 3.32171 | 103.10642 | 31404 ft | 454 kts | 78° |
| 2026-05-07 20:54 | 3.32822 | 103.13732 | 31690 ft | 454 kts | 78° |
| 2026-05-07 20:54 | 3.33473 | 103.16819 | 31962 ft | 453 kts | 78° |
| 2026-05-07 20:55 | 3.34123 | 103.19904 | 32244 ft | 452 kts | 78° |
| 2026-05-07 20:55 | 3.34774 | 103.22989 | 32534 ft | 452 kts | 78° |
| 2026-05-07 20:55 | 3.35420 | 103.26055 | 32817 ft | 451 kts | 78° |
| 2026-05-07 20:55 | 3.36069 | 103.29132 | 33089 ft | 451 kts | 78° |
| 2026-05-07 20:56 | 3.36715 | 103.32196 | 33321 ft | 451 kts | 78° |
| 2026-05-07 20:56 | 3.37363 | 103.35276 | 33540 ft | 451 kts | 78° |
| 2026-05-07 20:56 | 3.37990 | 103.38351 | 33816 ft | 450 kts | 82° |
| 2026-05-07 20:56 | 3.38227 | 103.41469 | 34098 ft | 449 kts | 91° |
| 2026-05-07 20:57 | 3.38014 | 103.44573 | 34398 ft | 448 kts | 98° |
| 2026-05-07 20:57 | 3.37361 | 103.47623 | 34641 ft | 448 kts | 105° |
| 2026-05-07 20:57 | 3.36510 | 103.50617 | 34844 ft | 449 kts | 106° |
| 2026-05-07 20:57 | 3.35635 | 103.53581 | 35062 ft | 449 kts | 106° |
| 2026-05-07 20:58 | 3.34750 | 103.56573 | 35359 ft | 448 kts | 106° |
| 2026-05-07 20:58 | 3.33876 | 103.59560 | 35592 ft | 447 kts | 105° |
| 2026-05-07 20:58 | 3.33012 | 103.62552 | 35786 ft | 448 kts | 105° |
| 2026-05-07 20:58 | 3.32155 | 103.65549 | 36004 ft | 448 kts | 105° |
| 2026-05-07 20:59 | 3.31305 | 103.68545 | 36239 ft | 447 kts | 105° |
| 2026-05-07 20:59 | 3.30457 | 103.71542 | 36435 ft | 448 kts | 105° |
| 2026-05-07 20:59 | 3.29609 | 103.74543 | 36638 ft | 448 kts | 105° |
| 2026-05-07 20:59 | 3.28759 | 103.77548 | 36841 ft | 448 kts | 105° |
| 2026-05-07 21:00 | 3.27908 | 103.80550 | 36807 ft | 450 kts | 105° |
| 2026-05-07 21:00 | 3.26214 | 103.86529 | 36818 ft | 441 kts | 105° |
| 2026-05-07 21:01 | 3.24552 | 103.92387 | 36835 ft | 436 kts | 105° |
| 2026-05-07 21:01 | 3.22908 | 103.98186 | 36836 ft | 437 kts | 105° |
| 2026-05-07 21:02 | 3.21248 | 104.04041 | 36839 ft | 437 kts | 105° |
| 2026-05-07 21:02 | 3.19585 | 104.09904 | 36839 ft | 438 kts | 105° |
| 2026-05-07 21:03 | 3.17920 | 104.15775 | 36835 ft | 439 kts | 105° |
| 2026-05-07 21:03 | 3.16300 | 104.21664 | 36836 ft | 439 kts | 104° |
| 2026-05-07 21:04 | 3.14710 | 104.27567 | 36834 ft | 439 kts | 104° |
| 2026-05-07 21:04 | 3.13108 | 104.33469 | 36840 ft | 440 kts | 104° |
| 2026-05-07 21:05 | 3.11490 | 104.39367 | 36832 ft | 440 kts | 104° |
| 2026-05-07 21:05 | 3.09860 | 104.45279 | 36833 ft | 441 kts | 105° |
| 2026-05-07 21:06 | 3.08233 | 104.51188 | 36831 ft | 440 kts | 105° |
| 2026-05-07 21:06 | 3.06618 | 104.57055 | 36835 ft | 440 kts | 105° |
| 2026-05-07 21:07 | 3.04992 | 104.62965 | 36829 ft | 440 kts | 105° |
| 2026-05-07 21:07 | 3.03367 | 104.68869 | 36832 ft | 440 kts | 105° |
| 2026-05-07 21:08 | 3.01737 | 104.74773 | 36835 ft | 440 kts | 105° |
| 2026-05-07 21:08 | 3.00109 | 104.80668 | 36827 ft | 439 kts | 105° |
| 2026-05-07 21:09 | 2.98484 | 104.86558 | 36832 ft | 439 kts | 105° |
| 2026-05-07 21:09 | 2.96869 | 104.92406 | 36831 ft | 439 kts | 105° |
| 2026-05-07 21:10 | 2.95244 | 104.98295 | 36828 ft | 439 kts | 105° |
| 2026-05-07 21:10 | 2.93620 | 105.04181 | 36834 ft | 439 kts | 105° |
| 2026-05-07 21:11 | 2.91995 | 105.10061 | 36831 ft | 438 kts | 105° |
| 2026-05-07 21:11 | 2.89562 | 105.18873 | 36833 ft | 438 kts | 105° |
| 2026-05-07 21:12 | 2.87917 | 105.24737 | 36832 ft | 438 kts | 105° |
| 2026-05-07 21:12 | 2.86301 | 105.30573 | 36827 ft | 438 kts | 105° |
| 2026-05-07 21:13 | 2.84682 | 105.36459 | 36826 ft | 439 kts | 104° |
| 2026-05-07 21:13 | 2.83057 | 105.42347 | 36828 ft | 439 kts | 105° |
| 2026-05-07 21:14 | 2.81428 | 105.48248 | 36829 ft | 440 kts | 105° |
| 2026-05-07 21:14 | 2.79794 | 105.54162 | 36831 ft | 442 kts | 105° |
| 2026-05-07 21:15 | 2.78156 | 105.60088 | 36828 ft | 442 kts | 105° |
| 2026-05-07 21:15 | 2.76525 | 105.65992 | 36820 ft | 443 kts | 105° |
| 2026-05-07 21:16 | 2.74882 | 105.71938 | 36821 ft | 444 kts | 105° |
| 2026-05-07 21:16 | 2.73240 | 105.77883 | 36830 ft | 444 kts | 105° |
| 2026-05-07 21:17 | 2.71595 | 105.83844 | 36817 ft | 444 kts | 105° |
| 2026-05-07 21:17 | 2.69953 | 105.89800 | 36819 ft | 443 kts | 105° |
| 2026-05-07 21:18 | 2.68313 | 105.95743 | 36832 ft | 443 kts | 105° |
| 2026-05-07 21:18 | 2.66686 | 106.01640 | 36830 ft | 442 kts | 105° |
| 2026-05-07 21:19 | 2.65051 | 106.07566 | 36820 ft | 442 kts | 105° |
| 2026-05-07 21:19 | 2.63417 | 106.13483 | 36818 ft | 441 kts | 105° |
| 2026-05-07 21:20 | 2.61783 | 106.19398 | 36827 ft | 440 kts | 105° |
| 2026-05-07 21:20 | 2.60153 | 106.25301 | 36836 ft | 440 kts | 105° |
| 2026-05-07 21:21 | 2.58522 | 106.31205 | 36827 ft | 440 kts | 105° |
| 2026-05-07 21:21 | 2.56893 | 106.37104 | 36817 ft | 440 kts | 105° |
| 2026-05-07 21:22 | 2.55275 | 106.42961 | 36825 ft | 440 kts | 105° |
| 2026-05-07 21:22 | 2.53651 | 106.48863 | 36826 ft | 439 kts | 105° |
| 2026-05-07 21:23 | 2.52028 | 106.54756 | 36830 ft | 439 kts | 105° |
| 2026-05-07 21:23 | 2.50401 | 106.60650 | 36828 ft | 440 kts | 105° |
| 2026-05-07 21:24 | 2.48773 | 106.66548 | 36820 ft | 440 kts | 105° |
| 2026-05-07 21:24 | 2.47145 | 106.72446 | 36820 ft | 440 kts | 105° |
| 2026-05-07 21:25 | 2.45791 | 106.77348 | 36828 ft | 440 kts | 105° |
| 2026-05-07 21:25 | 2.44161 | 106.83248 | 36830 ft | 440 kts | 105° |
| 2026-05-07 21:26 | 2.42268 | 106.90105 | 36833 ft | 440 kts | 105° |
| 2026-05-07 21:26 | 2.40902 | 106.95051 | 36836 ft | 440 kts | 104° |
| 2026-05-07 21:27 | 2.39283 | 107.00912 | 36828 ft | 440 kts | 104° |
| 2026-05-07 21:27 | 2.37657 | 107.06797 | 36830 ft | 439 kts | 105° |
| 2026-05-07 21:28 | 2.36029 | 107.12683 | 36832 ft | 439 kts | 104° |
| 2026-05-07 21:28 | 2.34401 | 107.18559 | 36827 ft | 438 kts | 104° |
| 2026-05-07 21:29 | 2.32775 | 107.24426 | 36832 ft | 437 kts | 104° |
| 2026-05-07 21:29 | 2.31152 | 107.30285 | 36836 ft | 437 kts | 104° |
| 2026-05-07 21:30 | 2.29532 | 107.36137 | 36828 ft | 436 kts | 104° |
| 2026-05-07 21:30 | 2.27922 | 107.41949 | 36832 ft | 436 kts | 104° |
| 2026-05-07 21:31 | 2.26303 | 107.47790 | 36832 ft | 436 kts | 105° |
| 2026-05-07 21:31 | 2.24684 | 107.53632 | 36831 ft | 435 kts | 104° |
| 2026-05-07 21:32 | 2.23071 | 107.59455 | 36832 ft | 434 kts | 105° |
| 2026-05-07 21:32 | 2.21460 | 107.65263 | 36829 ft | 433 kts | 105° |
| 2026-05-07 21:33 | 2.19861 | 107.71031 | 36832 ft | 433 kts | 105° |
| 2026-05-07 21:33 | 2.18250 | 107.76843 | 36835 ft | 433 kts | 104° |
| 2026-05-07 21:34 | 2.16639 | 107.82653 | 36836 ft | 433 kts | 105° |
| 2026-05-07 21:34 | 2.15024 | 107.88458 | 36834 ft | 433 kts | 105° |
| 2026-05-07 21:35 | 2.13399 | 107.94261 | 36835 ft | 433 kts | 105° |
| 2026-05-07 21:35 | 2.11772 | 108.00070 | 36779 ft | 434 kts | 105° |
| 2026-05-07 21:36 | 2.10954 | 108.02991 | 36328 ft | 438 kts | 105° |
| 2026-05-07 21:36 | 2.10140 | 108.05898 | 35951 ft | 432 kts | 105° |
| 2026-05-07 21:36 | 2.09335 | 108.08776 | 35521 ft | 428 kts | 105° |
| 2026-05-07 21:36 | 2.08536 | 108.11633 | 35099 ft | 425 kts | 105° |
| 2026-05-07 21:37 | 2.07744 | 108.14465 | 34680 ft | 421 kts | 105° |
| 2026-05-07 21:37 | 2.06957 | 108.17276 | 34289 ft | 417 kts | 104° |
| 2026-05-07 21:37 | 2.06183 | 108.20043 | 34012 ft | 410 kts | 104° |
| 2026-05-07 21:37 | 2.05431 | 108.22733 | 33764 ft | 406 kts | 104° |
| 2026-05-07 21:38 | 2.04666 | 108.25467 | 33536 ft | 412 kts | 105° |
| 2026-05-07 21:38 | 2.03891 | 108.28236 | 33299 ft | 414 kts | 105° |
| 2026-05-07 21:38 | 2.03114 | 108.31015 | 33052 ft | 415 kts | 105° |
| 2026-05-07 21:38 | 2.02337 | 108.33791 | 32800 ft | 414 kts | 105° |
| 2026-05-07 21:39 | 2.01563 | 108.36554 | 32547 ft | 411 kts | 105° |
| 2026-05-07 21:39 | 2.00794 | 108.39302 | 32295 ft | 409 kts | 105° |
| 2026-05-07 21:39 | 2.00029 | 108.42035 | 32054 ft | 408 kts | 105° |
| 2026-05-07 21:39 | 1.99265 | 108.44765 | 31794 ft | 406 kts | 105° |
| 2026-05-07 21:40 | 1.98506 | 108.47474 | 31545 ft | 404 kts | 105° |
| 2026-05-07 21:40 | 1.97748 | 108.50181 | 31287 ft | 403 kts | 105° |
| 2026-05-07 21:40 | 1.96998 | 108.52877 | 31046 ft | 402 kts | 105° |
| 2026-05-07 21:40 | 1.96253 | 108.55563 | 30795 ft | 400 kts | 105° |
| 2026-05-07 21:41 | 1.95514 | 108.58238 | 30548 ft | 399 kts | 105° |
| 2026-05-07 21:41 | 1.94775 | 108.60909 | 30298 ft | 398 kts | 105° |
| 2026-05-07 21:41 | 1.94037 | 108.63572 | 30039 ft | 396 kts | 105° |
| 2026-05-07 21:41 | 1.93317 | 108.66172 | 29713 ft | 391 kts | 105° |
| 2026-05-07 21:42 | 1.92594 | 108.68782 | 29333 ft | 388 kts | 105° |
| 2026-05-07 21:42 | 1.91876 | 108.71371 | 28940 ft | 385 kts | 105° |
| 2026-05-07 21:42 | 1.91166 | 108.73940 | 28546 ft | 382 kts | 104° |
| 2026-05-07 21:42 | 1.90548 | 108.76515 | 28203 ft | 381 kts | 101° |
| 2026-05-07 21:43 | 1.89997 | 108.79136 | 27799 ft | 390 kts | 101° |
| 2026-05-07 21:43 | 1.89459 | 108.81815 | 27270 ft | 394 kts | 101° |
| 2026-05-07 21:43 | 1.88924 | 108.84484 | 26915 ft | 389 kts | 101° |
| 2026-05-07 21:43 | 1.88391 | 108.87122 | 26498 ft | 385 kts | 101° |
| 2026-05-07 21:44 | 1.87858 | 108.89729 | 26100 ft | 382 kts | 101° |
| 2026-05-07 21:44 | 1.87343 | 108.92326 | 25698 ft | 378 kts | 98° |
| 2026-05-07 21:44 | 1.86986 | 108.94917 | 25303 ft | 374 kts | 96° |
| 2026-05-07 21:44 | 1.86690 | 108.97497 | 24910 ft | 371 kts | 95° |
| 2026-05-07 21:45 | 1.86412 | 109.00010 | 24524 ft | 368 kts | 95° |
| 2026-05-07 21:45 | 1.86133 | 109.02547 | 24191 ft | 368 kts | 95° |
| 2026-05-07 21:45 | 1.85853 | 109.05100 | 23788 ft | 371 kts | 95° |
| 2026-05-07 21:45 | 1.85573 | 109.07674 | 23374 ft | 374 kts | 95° |
| 2026-05-07 21:46 | 1.85294 | 109.10260 | 22950 ft | 374 kts | 95° |
| 2026-05-07 21:46 | 1.85019 | 109.12847 | 22543 ft | 373 kts | 95° |
| 2026-05-07 21:46 | 1.84577 | 109.15384 | 22109 ft | 371 kts | 109° |
| 2026-05-07 21:46 | 1.83535 | 109.17726 | 21782 ft | 366 kts | 114° |
| 2026-05-07 21:47 | 1.82492 | 109.20038 | 21384 ft | 363 kts | 111° |
| 2026-05-07 21:47 | 1.81598 | 109.22384 | 21003 ft | 359 kts | 108° |
| 2026-05-07 21:47 | 1.80847 | 109.24752 | 20620 ft | 356 kts | 105° |
| 2026-05-07 21:47 | 1.80204 | 109.27128 | 20245 ft | 352 kts | 103° |
| 2026-05-07 21:48 | 1.79628 | 109.29505 | 19884 ft | 350 kts | 102° |
| 2026-05-07 21:48 | 1.79093 | 109.31875 | 19515 ft | 349 kts | 101° |
| 2026-05-07 21:48 | 1.78587 | 109.34210 | 19119 ft | 347 kts | 101° |
| 2026-05-07 21:48 | 1.78088 | 109.36560 | 18747 ft | 344 kts | 101° |
| 2026-05-07 21:49 | 1.77599 | 109.38886 | 18386 ft | 341 kts | 101° |
| 2026-05-07 21:49 | 1.77113 | 109.41203 | 18011 ft | 338 kts | 101° |
| 2026-05-07 21:49 | 1.76635 | 109.43490 | 17657 ft | 335 kts | 101° |
| 2026-05-07 21:49 | 1.76160 | 109.45764 | 17303 ft | 333 kts | 101° |
| 2026-05-07 21:50 | 1.75688 | 109.48022 | 16939 ft | 331 kts | 101° |
| 2026-05-07 21:50 | 1.75220 | 109.50263 | 16588 ft | 328 kts | 101° |
| 2026-05-07 21:50 | 1.74752 | 109.52497 | 16230 ft | 327 kts | 101° |
| 2026-05-07 21:50 | 1.74289 | 109.54711 | 15892 ft | 324 kts | 101° |
| 2026-05-07 21:51 | 1.73828 | 109.56914 | 15547 ft | 323 kts | 101° |
| 2026-05-07 21:51 | 1.73369 | 109.59111 | 15195 ft | 323 kts | 101° |
| 2026-05-07 21:51 | 1.72911 | 109.61297 | 14840 ft | 321 kts | 101° |
| 2026-05-07 21:51 | 1.72455 | 109.63477 | 14491 ft | 319 kts | 101° |
| 2026-05-07 21:52 | 1.72003 | 109.65638 | 14160 ft | 316 kts | 101° |
| 2026-05-07 21:52 | 1.71554 | 109.67786 | 13816 ft | 315 kts | 101° |
| 2026-05-07 21:52 | 1.71105 | 109.69927 | 13486 ft | 314 kts | 101° |
| 2026-05-07 21:52 | 1.70658 | 109.72061 | 13158 ft | 314 kts | 101° |
| 2026-05-07 21:53 | 1.70206 | 109.74195 | 12799 ft | 313 kts | 101° |
| 2026-05-07 21:53 | 1.69762 | 109.76323 | 12470 ft | 311 kts | 101° |
| 2026-05-07 21:53 | 1.69329 | 109.78404 | 12136 ft | 309 kts | 101° |
| 2026-05-07 21:53 | 1.68886 | 109.80523 | 11915 ft | 303 kts | 101° |
| 2026-05-07 21:54 | 1.68467 | 109.82530 | 11648 ft | 299 kts | 101° |
| 2026-05-07 21:54 | 1.68043 | 109.84559 | 11342 ft | 297 kts | 101° |
| 2026-05-07 21:54 | 1.67620 | 109.86579 | 11016 ft | 297 kts | 101° |
| 2026-05-07 21:54 | 1.67198 | 109.88593 | 10695 ft | 295 kts | 101° |
| 2026-05-07 21:55 | 1.66778 | 109.90598 | 10374 ft | 294 kts | 102° |
| 2026-05-07 21:55 | 1.66360 | 109.92596 | 10052 ft | 293 kts | 102° |
| 2026-05-07 21:55 | 1.65944 | 109.94582 | 9737 ft | 292 kts | 102° |
| 2026-05-07 21:55 | 1.65529 | 109.96564 | 9419 ft | 291 kts | 102° |
| 2026-05-07 21:56 | 1.65116 | 109.98541 | 9096 ft | 289 kts | 102° |
| 2026-05-07 21:56 | 1.64704 | 110.00507 | 8781 ft | 289 kts | 102° |
| 2026-05-07 21:56 | 1.64292 | 110.02468 | 8461 ft | 288 kts | 102° |
| 2026-05-07 21:56 | 1.63883 | 110.04420 | 8159 ft | 287 kts | 102° |
| 2026-05-07 21:57 | 1.63474 | 110.06367 | 7851 ft | 286 kts | 102° |
| 2026-05-07 21:57 | 1.63068 | 110.08309 | 7528 ft | 285 kts | 102° |
| 2026-05-07 21:57 | 1.62662 | 110.10248 | 7222 ft | 284 kts | 103° |
| 2026-05-07 21:57 | 1.62257 | 110.12178 | 6919 ft | 283 kts | 103° |
| 2026-05-07 21:58 | 1.61854 | 110.14099 | 6615 ft | 282 kts | 103° |
| 2026-05-07 21:58 | 1.61459 | 110.15986 | 6311 ft | 281 kts | 103° |
| 2026-05-07 21:58 | 1.61060 | 110.17893 | 6003 ft | 280 kts | 102° |
| 2026-05-07 21:58 | 1.60662 | 110.19794 | 5707 ft | 279 kts | 102° |
| 2026-05-07 21:59 | 1.60264 | 110.21690 | 5398 ft | 277 kts | 102° |
| 2026-05-07 21:59 | 1.59871 | 110.23566 | 5104 ft | 276 kts | 102° |
| 2026-05-07 21:59 | 1.59479 | 110.25439 | 4823 ft | 275 kts | 102° |
| 2026-05-07 21:59 | 1.59107 | 110.27309 | 4516 ft | 274 kts | 97° |
| 2026-05-07 22:00 | 1.59143 | 110.29199 | 4253 ft | 271 kts | 84° |
| 2026-05-07 22:00 | 1.59348 | 110.31065 | 3996 ft | 269 kts | 84° |
| 2026-05-07 22:00 | 1.59532 | 110.32919 | 3733 ft | 267 kts | 84° |
| 2026-05-07 22:00 | 1.59698 | 110.34748 | 3512 ft | 259 kts | 85° |
| 2026-05-07 22:01 | 1.59850 | 110.36513 | 3245 ft | 251 kts | 85° |
| 2026-05-07 22:01 | 1.59993 | 110.38196 | 3013 ft | 241 kts | 85° |
| 2026-05-07 22:01 | 1.60065 | 110.39830 | 2777 ft | 230 kts | 94° |
| 2026-05-07 22:01 | 1.59677 | 110.41341 | 2561 ft | 221 kts | 115° |
| 2026-05-07 22:02 | 1.58817 | 110.42575 | 2330 ft | 212 kts | 136° |
| 2026-05-07 22:02 | 1.57656 | 110.43421 | 2126 ft | 203 kts | 153° |
| 2026-05-07 22:02 | 1.56360 | 110.43899 | 1931 ft | 195 kts | 168° |
| 2026-05-07 22:02 | 1.55036 | 110.44072 | 1712 ft | 189 kts | 182° |
| 2026-05-07 22:03 | 1.53784 | 110.43832 | 1513 ft | 178 kts | 201° |
| 2026-05-07 22:03 | 1.52754 | 110.43257 | 1360 ft | 161 kts | 217° |
| 2026-05-07 22:03 | 1.51948 | 110.42525 | 1200 ft | 156 kts | 227° |
| 2026-05-07 22:03 | 1.51316 | 110.41659 | 1020 ft | 154 kts | 239° |
| 2026-05-07 22:04 | 1.50861 | 110.40695 | 876 ft | 155 kts | 247° |
| 2026-05-07 22:04 | 1.50464 | 110.39690 | 686 ft | 155 kts | 248° |
| 2026-05-07 22:04 | 1.50073 | 110.38681 | 481 ft | 155 kts | 248° |
| 2026-05-07 22:04 | 1.49676 | 110.37676 | 286 ft | 155 kts | 248° |
| 2026-05-07 22:05 | 1.49291 | 110.36699 | 83 ft | 152 kts | 248° |
| 2026-05-07 22:05 | 1.48929 | 110.35782 | 68 ft | 124 kts | 249° |
| 2026-05-07 22:05 | 1.48665 | 110.35119 | 69 ft | 81 kts | 249° |
| 2026-05-07 22:05 | 1.48511 | 110.34731 | 77 ft | 42 kts | 248° |
| 2026-05-07 22:06 | 1.48413 | 110.34483 | 89 ft | 29 kts | 248° |
| 2026-05-07 22:06 | 1.48365 | 110.34349 | 87 ft | 12 kts | 266° |
| 2026-05-07 22:06 | 1.48415 | 110.34288 | 83 ft | 11 kts | 337° |
| 2026-05-07 22:06 | 1.48499 | 110.34256 | 74 ft | 11 kts | 341° |
| 2026-05-07 22:07 | 1.48552 | 110.34230 | 77 ft | 7 kts | 310° |
| 2026-05-07 22:07 | 1.48554 | 110.34181 | 77 ft | 7 kts | 253° |
| 2026-05-07 22:07 | 1.48557 | 110.34142 | 77 ft | 6 kts | 325° |
| 2026-05-07 22:07 | 1.48596 | 110.34126 | 71 ft | 6 kts | 339° |
| 2026-05-07 22:08 | 1.48612 | 110.34119 | 77 ft | 2 kts | 339° |
| 2026-05-07 22:08 | 1.48615 | 110.34118 | 77 ft | 0 kts | 339° |